Time;durP1;ratioP1;P1;durP2;ratioP2;P2;SDS_P1;SDS_P2;PMS_P1;PMS_P2;Temp;Humidity;BMP_temperature;BMP_pressure;BME280_temperature;BME280_humidity;BME280_pressure;Samples;Min_cycle;Max_cycle;Signal;HPM_P1;HPM_P2
2023/09/24 00:00:15;;;;;;;20.20;19.10;;;;;;;-141.02;78.67;41853.16;5133725;27;20192;-58
2023/09/24 00:02:43;;;;;;;20.15;19.05;;;;;;;-141.02;79.74;41791.75;5133969;27;20194;-60
2023/09/24 00:05:12;;;;;;;20.90;19.80;;;;;;;-141.02;79.79;41803.28;5133884;27;20189;-59
2023/09/24 00:07:39;;;;;;;19.98;18.88;;;;;;;-141.02;80.62;41776.41;5134649;27;20193;-59
2023/09/24 00:10:08;;;;;;;19.80;18.73;;;;;;;-141.02;81.18;41745.69;5133385;27;20218;-59
2023/09/24 00:12:36;;;;;;;20.42;19.42;;;;;;;-141.02;78.40;41799.44;5133674;27;20280;-59
2023/09/24 00:15:03;;;;;;;20.58;19.50;;;;;;;-141.02;76.92;41814.78;5133534;27;20239;-59
2023/09/24 00:17:31;;;;;;;20.63;19.52;;;;;;;-141.02;75.53;41830.13;5133829;27;20192;-59
2023/09/24 00:19:58;;;;;;;20.65;19.55;;;;;;;-141.02;75.19;41845.50;5133442;27;20279;-58
2023/09/24 00:22:24;;;;;;;20.73;19.63;;;;;;;-141.02;75.53;41832.06;5133658;27;20199;-59
2023/09/24 00:24:51;;;;;;;21.40;20.20;;;;;;;-141.02;75.21;41864.69;5133715;27;20261;-59
2023/09/24 00:27:20;;;;;;;20.75;19.65;;;;;;;-141.02;75.97;41858.94;5133437;27;20228;-59
2023/09/24 00:29:47;;;;;;;20.73;19.63;;;;;;;-141.02;76.74;41839.72;5133269;27;20546;-59
2023/09/24 00:32:14;;;;;;;19.88;18.88;;;;;;;-141.02;76.24;41837.81;5133228;27;20291;-59
2023/09/24 00:34:41;;;;;;;20.35;19.30;;;;;;;-141.02;75.19;41849.34;5133189;27;20673;-59
2023/09/24 00:37:09;;;;;;;20.90;19.80;;;;;;;-141.02;74.28;41870.44;5133557;27;20643;-59
2023/09/24 00:39:38;;;;;;;20.83;19.73;;;;;;;-141.02;73.77;41853.16;5132953;27;20244;-59
2023/09/24 00:42:09;;;;;;;20.85;19.75;;;;;;;-141.02;74.63;41853.16;5133054;27;20279;-59
2023/09/24 00:44:37;;;;;;;21.05;19.95;;;;;;;-141.02;74.31;41845.50;5133364;27;20188;-59
2023/09/24 00:47:04;;;;;;;19.52;18.52;;;;;;;-141.02;74.72;41883.88;5132914;27;20227;-59
2023/09/24 00:49:32;;;;;;;19.15;18.15;;;;;;;-141.02;75.37;41858.94;5133274;27;20283;-59
2023/09/24 00:51:59;;;;;;;20.58;19.48;;;;;;;-141.02;75.26;41845.50;5132961;27;20226;-58
2023/09/24 00:54:26;;;;;;;21.13;20.02;;;;;;;-141.02;75.38;41857.00;5133313;27;20275;-59
2023/09/24 00:56:58;;;;;;;21.13;20.02;;;;;;;-141.02;74.95;41841.66;5132880;27;20671;-59
2023/09/24 00:59:27;;;;;;;20.98;19.88;;;;;;;-141.02;73.99;41843.56;5132985;27;20224;-59
2023/09/24 01:01:57;;;;;;;20.27;19.17;;;;;;;-141.02;72.50;41853.16;5133123;27;20204;-58
2023/09/24 01:04:24;;;;;;;21.05;19.95;;;;;;;-141.02;72.67;41837.81;5133754;27;20228;-59
2023/09/24 01:06:51;;;;;;;21.13;20.02;;;;;;;-141.02;72.32;41841.66;5133104;27;20224;-59
2023/09/24 01:09:22;;;;;;;21.20;20.10;;;;;;;-141.02;72.36;41872.38;5133130;27;20234;-59
2023/09/24 01:11:49;;;;;;;21.27;20.17;;;;;;;-141.02;72.16;41857.00;5132900;27;20227;-59
2023/09/24 01:14:16;;;;;;;20.63;19.52;;;;;;;-141.02;71.75;41853.16;5132972;27;20203;-59
2023/09/24 01:16:43;;;;;;;20.85;19.75;;;;;;;-141.02;71.19;41868.53;5133018;27;20200;-60
2023/09/24 01:19:12;;;;;;;21.17;20.08;;;;;;;-141.02;71.05;41876.19;5132724;27;20569;-58
2023/09/24 01:21:41;;;;;;;20.75;19.65;;;;;;;-141.02;70.83;41895.38;5132732;27;20674;-58
2023/09/24 01:24:10;;;;;;;21.33;20.20;;;;;;;-141.02;70.66;41858.94;5132677;27;20198;-59
2023/09/24 01:26:37;;;;;;;21.65;20.45;;;;;;;-141.02;70.45;41853.16;5132536;27;20576;-59
2023/09/24 01:29:09;;;;;;;20.48;19.38;;;;;;;-141.02;70.68;41891.56;5132658;27;20192;-59
2023/09/24 01:31:38;;;;;;;20.98;19.88;;;;;;;-141.02;70.58;41889.63;5132928;27;20212;-59
2023/09/24 01:34:08;;;;;;;19.85;18.85;;;;;;;-141.02;70.37;41874.28;5132946;27;20203;-60
2023/09/24 01:36:35;;;;;;;21.17;20.08;;;;;;;-141.02;70.34;41876.19;5132835;27;20185;-59
2023/09/24 01:39:02;;;;;;;21.60;20.40;;;;;;;-141.02;70.51;41891.56;5132559;27;20189;-59
2023/09/24 01:41:32;;;;;;;21.20;20.08;;;;;;;-141.02;70.39;41903.06;5132534;27;20679;-67
2023/09/24 01:43:59;;;;;;;21.98;20.77;;;;;;;-141.02;70.23;41883.88;5133051;27;20185;-59
2023/09/24 01:46:26;;;;;;;21.75;20.55;;;;;;;-141.02;70.41;41899.22;5132369;27;20227;-59
2023/09/24 01:48:54;;;;;;;21.58;20.40;;;;;;;-141.02;70.81;41906.91;5132742;27;20197;-59
2023/09/24 01:51:21;;;;;;;21.63;20.45;;;;;;;-141.02;70.93;41891.56;5133699;27;20188;-59
2023/09/24 01:53:48;;;;;;;21.27;20.17;;;;;;;-141.02;71.12;41891.56;5136197;27;20287;-59
2023/09/24 01:56:18;;;;;;;20.10;19.00;;;;;;;-141.02;71.76;41889.63;5136620;27;20193;-59
2023/09/24 01:58:46;;;;;;;21.08;19.98;;;;;;;-141.02;71.52;41883.88;5136470;27;20245;-58
2023/09/24 02:01:13;;;;;;;21.13;20.02;;;;;;;-141.02;71.90;41903.06;5136154;27;20574;-59
2023/09/24 02:03:41;;;;;;;21.20;20.10;;;;;;;-141.02;72.25;41910.75;5136427;27;20201;-59
2023/09/24 02:06:08;;;;;;;21.52;20.42;;;;;;;-141.02;72.08;41906.91;5135971;27;20224;-64
2023/09/24 02:08:35;;;;;;;21.00;19.90;;;;;;;-141.02;73.79;41860.84;5136043;27;20239;-58
2023/09/24 02:11:03;;;;;;;21.02;19.92;;;;;;;-141.02;75.47;41858.94;5136023;27;20232;-59
2023/09/24 02:13:30;;;;;;;20.48;19.40;;;;;;;-141.02;76.75;41880.03;5136282;27;20228;-67
2023/09/24 02:16:00;;;;;;;20.08;19.02;;;;;;;-141.02;78.31;41841.66;5135908;27;20612;-59
2023/09/24 02:18:32;;;;;;;20.05;19.05;;;;;;;-141.02;79.20;41818.63;5136135;27;20227;-59
2023/09/24 02:20:59;;;;;;;19.92;18.92;;;;;;;-141.02;79.50;41845.50;5135873;27;20242;-59
2023/09/24 02:23:26;;;;;;;19.70;18.70;;;;;;;-141.02;81.26;41784.06;5135978;27;20197;-64
2023/09/24 02:25:53;;;;;;;19.67;18.67;;;;;;;-141.02;81.65;41795.59;5135952;27;20201;-58
2023/09/24 02:28:20;;;;;;;19.58;18.58;;;;;;;-141.02;81.44;41772.56;5135693;27;20753;-59
2023/09/24 02:30:48;;;;;;;19.50;18.50;;;;;;;-141.02;82.51;41745.69;5135614;27;20223;-58
2023/09/24 02:33:16;;;;;;;19.27;18.27;;;;;;;-141.02;81.40;41753.38;5135503;27;20196;-58
2023/09/24 02:35:43;;;;;;;19.55;18.55;;;;;;;-141.02;80.25;41778.31;5135734;27;20197;-59
2023/09/24 02:38:10;;;;;;;19.00;18.10;;;;;;;-141.02;79.24;41780.25;5135774;27;20272;-59
2023/09/24 02:40:38;;;;;;;18.98;18.08;;;;;;;-141.02;78.69;41795.59;5135732;27;20196;-58
2023/09/24 02:43:05;;;;;;;19.85;18.85;;;;;;;-141.02;78.69;41795.59;5135719;27;20569;-58
2023/09/24 02:45:33;;;;;;;19.98;18.98;;;;;;;-141.02;78.33;41789.84;5135619;27;20193;-68
2023/09/24 02:48:00;;;;;;;20.25;19.25;;;;;;;-141.02;78.56;41778.31;5135221;27;20248;-58
2023/09/24 02:50:29;;;;;;;20.25;19.25;;;;;;;-141.02;78.05;41805.19;5135582;27;20196;-60
2023/09/24 02:52:57;;;;;;;20.42;19.35;;;;;;;-141.02;78.08;41789.84;5135501;27;20203;-59
2023/09/24 02:55:25;;;;;;;19.77;18.77;;;;;;;-141.02;78.12;41772.56;5135450;27;20203;-59
2023/09/24 02:57:52;;;;;;;20.10;19.10;;;;;;;-141.02;78.31;41776.41;5135276;27;20671;-59
2023/09/24 03:00:21;;;;;;;20.08;19.08;;;;;;;-141.02;79.13;41786.00;5135047;27;20196;-59
2023/09/24 03:02:49;;;;;;;19.95;18.95;;;;;;;-141.02;79.09;41778.31;5134565;27;20586;-59
2023/09/24 03:05:20;;;;;;;20.27;19.27;;;;;;;-141.02;79.17;41757.22;5135238;27;20188;-59
2023/09/24 03:07:50;;;;;;;19.98;18.98;;;;;;;-141.02;79.07;41768.72;5135178;27;20303;-59
2023/09/24 03:10:18;;;;;;;19.85;18.85;;;;;;;-141.02;79.32;41759.13;5134848;27;20306;-58
2023/09/24 03:12:46;;;;;;;20.02;19.02;;;;;;;-141.02;79.47;41730.34;5134862;27;20726;-59
2023/09/24 03:15:13;;;;;;;19.88;18.88;;;;;;;-141.02;79.37;41730.34;5134724;27;20601;-59
2023/09/24 03:17:41;;;;;;;19.92;18.92;;;;;;;-141.02;79.83;41764.88;5134987;27;20199;-59
2023/09/24 03:20:18;;;;;;;20.40;19.40;;;;;;;-141.02;80.17;41741.84;5134630;27;20193;-58
2023/09/24 03:22:49;;;;;;;19.90;18.90;;;;;;;-141.02;79.84;41743.78;5134640;27;20188;-59
2023/09/24 03:25:17;;;;;;;19.60;18.60;;;;;;;-141.02;79.97;41732.25;5134508;27;20738;-59
2023/09/24 03:27:44;;;;;;;19.52;18.52;;;;;;;-141.02;80.05;41747.63;5134432;27;20224;-58
2023/09/24 03:30:14;;;;;;;19.60;18.60;;;;;;;-141.02;79.94;41738.03;5134716;27;20198;-59
2023/09/24 03:32:42;;;;;;;19.55;18.55;;;;;;;-141.02;80.18;41726.50;5134411;27;20199;-58
2023/09/24 03:35:11;;;;;;;19.70;18.70;;;;;;;-141.02;79.69;41745.69;5134340;27;20284;-58
2023/09/24 03:37:43;;;;;;;19.35;18.35;;;;;;;-141.02;80.15;41730.34;5134577;27;20283;-58
2023/09/24 03:40:14;;;;;;;19.55;18.55;;;;;;;-141.02;80.97;41707.31;5134616;27;20189;-60
2023/09/24 03:42:42;;;;;;;19.08;18.17;;;;;;;-141.02;81.30;41709.22;5134533;27;20185;-58
2023/09/24 03:45:12;;;;;;;19.27;18.33;;;;;;;-141.02;81.21;41703.47;5134157;27;20693;-58
2023/09/24 03:47:40;;;;;;;19.52;18.52;;;;;;;-141.02;81.58;41691.97;5134275;27;20327;-59
2023/09/24 03:50:10;;;;;;;19.60;18.60;;;;;;;-141.02;81.74;41703.47;5134021;27;20192;-58
2023/09/24 03:52:37;;;;;;;18.80;17.90;;;;;;;-141.02;81.45;41711.16;5134237;27;20196;-59
2023/09/24 03:55:05;;;;;;;18.55;17.55;;;;;;;-141.02;81.39;41715.00;5134228;27;20583;-61
2023/09/24 03:57:34;;;;;;;18.48;17.58;;;;;;;-141.02;82.77;41738.03;5134240;27;20231;-59
2023/09/24 04:00:01;;;;;;;17.05;16.25;;;;;;;-141.02;88.31;41601.75;5134406;27;20549;-58
2023/09/24 04:02:28;;;;;;;15.10;14.50;;;;;;;-141.02;91.43;41515.41;5134023;27;20860;-59
2023/09/24 04:04:55;;;;;;;15.27;14.68;;;;;;;-141.02;93.47;41398.34;5134039;27;20298;-58
2023/09/24 04:07:22;;;;;;;14.40;13.90;;;;;;;-141.02;95.70;41100.94;5133955;27;20319;-69
2023/09/24 04:09:49;;;;;;;14.70;14.20;;;;;;;-141.02;96.72;41139.31;5133873;27;20225;-59
2023/09/24 04:12:16;;;;;;;14.45;13.95;;;;;;;-141.02;99.18;41039.53;5133743;27;20682;-58
2023/09/24 04:14:45;;;;;;;14.25;13.75;;;;;;;-141.02;100.00;40630.88;5132891;27;20283;-58
2023/09/24 04:17:12;;;;;;;14.27;13.77;;;;;;;-141.02;100.00;40540.69;5134062;27;20292;-64
2023/09/24 04:19:39;;;;;;;14.13;13.63;;;;;;;-141.02;100.00;40479.31;5133868;27;20260;-59
2023/09/24 04:22:07;;;;;;;13.80;13.30;;;;;;;-141.02;100.00;40456.28;5133762;27;20279;-58
2023/09/24 04:24:36;;;;;;;14.20;13.70;;;;;;;-141.02;100.00;40440.94;5133773;27;20238;-58
2023/09/24 04:27:03;;;;;;;14.27;13.77;;;;;;;-141.02;100.00;40479.31;5133328;27;20740;-58
2023/09/24 04:29:30;;;;;;;13.75;13.25;;;;;;;-141.02;100.00;40552.22;5133315;27;20727;-59
2023/09/24 04:31:58;;;;;;;14.57;14.07;;;;;;;-141.02;100.00;40561.81;5133637;27;20276;-58
2023/09/24 04:34:25;;;;;;;14.18;13.68;;;;;;;-141.02;100.00;40651.97;5133557;27;20226;-59
2023/09/24 04:36:52;;;;;;;14.57;14.07;;;;;;;-141.02;100.00;40701.84;5133223;27;20188;-58
2023/09/24 04:39:19;;;;;;;14.60;14.10;;;;;;;-141.02;100.00;40749.81;5133702;27;20192;-58
2023/09/24 04:41:47;;;;;;;14.50;14.00;;;;;;;-141.02;100.00;40763.25;5133377;27;20671;-58
2023/09/24 04:44:14;;;;;;;14.43;13.93;;;;;;;-141.02;100.00;40805.47;5133175;27;20193;-59
2023/09/24 04:46:41;;;;;;;15.05;14.55;;;;;;;-141.02;99.01;40874.53;5132971;27;20204;-58
2023/09/24 04:49:10;;;;;;;14.43;13.93;;;;;;;-141.02;98.09;40951.28;5133067;27;20196;-68
2023/09/24 04:51:37;;;;;;;14.98;14.48;;;;;;;-141.02;97.59;41005.00;5132974;27;20577;-58
2023/09/24 04:54:04;;;;;;;15.55;14.95;;;;;;;-141.02;96.66;41062.56;5133551;27;20231;-58
2023/09/24 04:56:31;;;;;;;16.48;15.77;;;;;;;-141.02;96.09;41005.00;5133087;27;20196;-58
2023/09/24 04:58:58;;;;;;;15.43;14.82;;;;;;;-141.02;95.64;41143.16;5133265;27;20188;-59
2023/09/24 05:01:26;;;;;;;15.80;15.20;;;;;;;-141.02;96.73;41145.06;5132924;27;20758;-59
2023/09/24 05:03:54;;;;;;;14.48;13.98;;;;;;;-141.02;97.87;41123.97;5132929;27;20198;-58
2023/09/24 05:06:22;;;;;;;14.00;13.50;;;;;;;-141.02;99.57;41112.44;5132925;27;20647;-58
2023/09/24 05:08:50;;;;;;;12.48;12.07;;;;;;;-141.02;100.00;40974.28;5133078;27;20278;-59
2023/09/24 05:11:17;;;;;;;12.93;12.52;;;;;;;-141.02;100.00;40690.34;5132929;27;20254;-58
2023/09/24 05:13:44;;;;;;;12.68;12.27;;;;;;;-141.02;100.00;40486.97;5132782;27;20188;-58
2023/09/24 05:16:11;;;;;;;12.07;11.68;;;;;;;-141.02;100.00;40458.22;5133055;27;20246;-58
2023/09/24 05:18:38;;;;;;;11.70;11.30;;;;;;;-141.02;100.00;40504.25;5132751;27;20283;-59
2023/09/24 05:21:14;;;;;;;11.07;10.77;;;;;;;-141.02;100.00;40527.28;5132701;27;20196;-59
2023/09/24 05:23:42;;;;;;;12.13;11.73;;;;;;;-141.02;100.00;40510.00;5133105;27;20192;-58
2023/09/24 05:26:12;;;;;;;11.88;11.48;;;;;;;-141.02;100.00;40602.09;5135728;27;20282;-59
2023/09/24 05:28:39;;;;;;;12.27;11.88;;;;;;;-141.02;100.00;40636.63;5136756;27;20698;-59
2023/09/24 05:31:06;;;;;;;11.55;11.25;;;;;;;-141.02;100.00;40646.22;5136780;27;20568;-59
2023/09/24 05:33:33;;;;;;;13.20;12.80;;;;;;;-141.02;100.00;40724.88;5136744;27;20569;-58
2023/09/24 05:36:00;;;;;;;13.68;13.27;;;;;;;-141.02;100.00;40770.91;5136700;27;20650;-68
2023/09/24 05:38:29;;;;;;;13.20;12.80;;;;;;;-141.02;100.00;40786.28;5136702;27;20283;-58
2023/09/24 05:40:57;;;;;;;13.25;12.85;;;;;;;-141.02;100.00;40805.47;5136583;27;20213;-58
2023/09/24 05:43:24;;;;;;;13.13;12.73;;;;;;;-141.02;100.00;40816.97;5136891;27;20224;-68
2023/09/24 05:45:52;;;;;;;12.43;12.02;;;;;;;-141.02;100.00;40788.19;5136782;27;20690;-58
2023/09/24 05:48:19;;;;;;;12.32;11.93;;;;;;;-141.02;100.00;40763.25;5136730;27;20255;-58
2023/09/24 05:50:46;;;;;;;13.00;12.60;;;;;;;-141.02;100.00;40740.22;5136621;27;20197;-60
2023/09/24 05:53:14;;;;;;;12.73;12.32;;;;;;;-141.02;100.00;40749.81;5136765;27;20196;-68
2023/09/24 05:55:51;;;;;;;13.13;12.73;;;;;;;-141.02;100.00;40782.44;5136517;27;20283;-68
2023/09/24 05:58:20;;;;;;;13.48;13.07;;;;;;;-141.02;100.00;40811.22;5136355;27;20694;-58
2023/09/24 06:00:47;;;;;;;13.48;13.07;;;;;;;-141.02;100.00;40859.19;5136454;27;20193;-59
2023/09/24 06:03:14;;;;;;;13.43;13.02;;;;;;;-141.02;100.00;40872.59;5136174;27;20207;-59
2023/09/24 06:05:42;;;;;;;13.82;13.43;;;;;;;-141.02;100.00;40889.88;5136431;27;20279;-60
2023/09/24 06:08:09;;;;;;;14.02;13.57;;;;;;;-141.02;100.00;40916.75;5117337;27;20285;-68
2023/09/24 06:10:36;;;;;;;14.07;13.68;;;;;;;-141.02;100.00;40947.44;5115332;28;20319;-58
2023/09/24 06:13:03;;;;;;;14.88;14.38;;;;;;;-141.02;99.30;40981.97;5115388;28;20655;-59
2023/09/24 06:15:33;;;;;;;15.50;14.90;;;;;;;-141.02;97.97;41022.25;5115401;28;20246;-59
2023/09/24 06:18:00;;;;;;;14.65;14.15;;;;;;;-141.02;98.51;41020.34;5115589;28;20276;-59
2023/09/24 06:20:28;;;;;;;14.82;14.32;;;;;;;-141.02;96.69;41074.06;5126348;27;20658;-58
2023/09/24 06:22:57;;;;;;;15.93;15.32;;;;;;;-141.02;96.29;41116.28;5136164;27;20200;-60
2023/09/24 06:25:24;;;;;;;16.48;15.77;;;;;;;-141.02;96.81;41106.69;5136061;27;20192;-59
2023/09/24 06:27:51;;;;;;;16.27;15.57;;;;;;;-141.02;96.03;41173.84;5135703;27;20228;-59
2023/09/24 06:30:18;;;;;;;16.50;15.80;;;;;;;-141.02;94.41;41173.84;5135916;27;20576;-58
2023/09/24 06:32:46;;;;;;;16.83;16.13;;;;;;;-141.02;93.74;41235.25;5135980;27;20237;-68
2023/09/24 06:35:13;;;;;;;17.00;16.30;;;;;;;-141.02;92.16;41254.44;5135864;27;20247;-59
2023/09/24 06:37:40;;;;;;;16.98;16.17;;;;;;;-141.02;91.21;41260.19;5135053;27;20283;-61
2023/09/24 06:40:10;;;;;;;16.58;15.88;;;;;;;-141.02;91.44;41285.13;5135912;27;20192;-59
2023/09/24 06:42:37;;;;;;;17.45;16.65;;;;;;;-141.02;91.32;41319.69;5135929;27;20284;-59
2023/09/24 06:45:08;;;;;;;17.83;17.02;;;;;;;-141.02;87.69;41377.25;5135388;27;20197;-58
2023/09/24 06:47:35;;;;;;;17.58;16.77;;;;;;;-141.02;87.77;41406.03;5135631;27;20220;-58
2023/09/24 06:50:04;;;;;;;18.00;17.20;;;;;;;-141.02;85.02;41434.81;5135271;27;20232;-59
2023/09/24 06:52:32;;;;;;;18.90;18.00;;;;;;;-141.02;83.56;41500.06;5135225;27;20199;-58
2023/09/24 06:54:59;;;;;;;18.80;17.90;;;;;;;-141.02;83.03;41500.06;5121560;27;20193;-59
2023/09/24 06:57:26;;;;;;;19.27;18.38;;;;;;;-141.02;82.63;41551.88;5115108;28;20197;-61
2023/09/24 06:59:53;;;;;;;19.77;18.77;;;;;;;-141.02;81.51;41592.16;5114534;28;20567;-59
2023/09/24 07:02:20;;;;;;;19.60;18.60;;;;;;;-141.02;81.78;41596.00;5114825;28;20229;-58
2023/09/24 07:04:48;;;;;;;19.40;18.50;;;;;;;-141.02;80.77;41615.19;5129790;27;20194;-58
2023/09/24 07:07:16;;;;;;;19.45;18.55;;;;;;;-141.02;80.56;41634.38;5134937;27;20199;-68
2023/09/24 07:09:43;;;;;;;19.27;18.38;;;;;;;-141.02;79.85;41655.50;5134916;27;20203;-59
2023/09/24 07:12:10;;;;;;;18.42;17.60;;;;;;;-141.02;79.27;41691.97;5134697;27;20252;-59
2023/09/24 07:14:37;;;;;;;19.52;18.63;;;;;;;-141.02;77.67;41728.44;5135088;27;20564;-64
2023/09/24 07:17:04;;;;;;;19.15;18.25;;;;;;;-141.02;77.59;41757.22;5115102;27;20275;-59
2023/09/24 07:19:33;;;;;;;18.60;17.70;;;;;;;-141.02;76.71;41807.09;5114462;28;20228;-59
2023/09/24 07:21:59;;;;;;;18.92;18.02;;;;;;;-141.02;76.75;41866.59;5114611;28;20189;-59
2023/09/24 07:24:28;;;;;;;19.50;18.50;;;;;;;-141.02;76.08;41922.25;5124559;27;20203;-60
2023/09/24 07:26:56;;;;;;;19.58;18.65;;;;;;;-141.02;74.94;41924.19;5134613;27;20196;-59
2023/09/24 07:29:23;;;;;;;19.80;18.80;;;;;;;-141.02;75.73;42018.22;5134681;27;20307;-62
2023/09/24 07:31:51;;;;;;;19.45;18.45;;;;;;;-141.02;76.13;41997.13;5134479;27;20199;-63
2023/09/24 07:34:18;;;;;;;19.70;18.70;;;;;;;-141.02;74.69;42039.34;5134693;27;20245;-59
2023/09/24 07:36:45;;;;;;;19.52;18.52;;;;;;;-141.02;74.81;42048.94;5134629;27;20195;-58
2023/09/24 07:39:12;;;;;;;19.50;18.50;;;;;;;-141.02;73.34;42079.63;5134331;27;20206;-59
2023/09/24 07:41:40;;;;;;;19.65;18.65;;;;;;;-141.02;72.43;42081.56;5134242;27;20234;-59
2023/09/24 07:44:07;;;;;;;20.15;19.15;;;;;;;-141.02;73.72;42129.53;5134485;27;20593;-59
2023/09/24 07:46:34;;;;;;;19.50;18.60;;;;;;;-141.02;72.66;42167.94;5134110;27;20193;-64
2023/09/24 07:49:05;;;;;;;19.42;18.52;;;;;;;-141.02;72.99;42167.94;5133007;27;20228;-60
2023/09/24 07:51:32;;;;;;;19.52;18.52;;;;;;;-141.02;72.36;42194.81;5134409;27;20242;-59
2023/09/24 07:54:00;;;;;;;19.48;18.48;;;;;;;-141.02;72.53;42223.59;5134369;27;20196;-59
2023/09/24 07:56:27;;;;;;;19.48;18.48;;;;;;;-141.02;72.92;42233.19;5134327;27;20228;-59
2023/09/24 07:58:56;;;;;;;19.23;18.23;;;;;;;-141.02;72.13;42263.91;5134141;27;20197;-59
2023/09/24 08:01:23;;;;;;;19.40;18.40;;;;;;;-141.02;72.15;42279.25;5133904;27;20710;-68
2023/09/24 08:03:51;;;;;;;19.70;18.60;;;;;;;-141.02;72.05;42302.28;5123451;27;20640;-59
2023/09/24 08:06:19;;;;;;;18.85;17.95;;;;;;;-141.02;70.07;42317.66;5113535;28;20208;-59
2023/09/24 08:08:45;;;;;;;19.38;18.48;;;;;;;-141.02;70.37;42321.47;5113554;27;20239;-59
2023/09/24 08:11:12;;;;;;;19.42;18.42;;;;;;;-141.02;70.36;42148.75;5133438;27;20301;-59
2023/09/24 08:13:39;;;;;;;18.95;18.05;;;;;;;-141.02;71.80;42190.97;5133978;27;20197;-59
2023/09/24 08:16:08;;;;;;;19.10;18.20;;;;;;;-141.02;72.52;42244.72;5133502;27;20769;-59
2023/09/24 08:18:35;;;;;;;19.08;18.17;;;;;;;-141.02;72.48;42290.78;5133583;27;20659;-59
2023/09/24 08:21:03;;;;;;;18.80;17.90;;;;;;;-141.02;73.54;42198.63;5133508;27;20202;-59
2023/09/24 08:23:29;;;;;;;19.17;18.17;;;;;;;-141.02;73.48;42190.97;5113140;27;20275;-59
2023/09/24 08:25:57;;;;;;;19.05;18.05;;;;;;;-141.02;73.75;42210.16;5113187;28;20229;-61
2023/09/24 08:28:23;;;;;;;19.02;18.02;;;;;;;-141.02;73.05;42244.72;5114090;28;20228;-63
2023/09/24 08:30:51;;;;;;;19.17;18.17;;;;;;;-141.02;73.03;42271.56;5113121;28;20199;-60
2023/09/24 08:33:19;;;;;;;19.15;18.15;;;;;;;-141.02;72.62;42271.56;5113084;28;20226;-59
2023/09/24 08:35:46;;;;;;;19.58;18.58;;;;;;;-141.02;72.46;42298.44;5113045;28;20201;-59
2023/09/24 08:38:14;;;;;;;19.08;18.08;;;;;;;-141.02;72.88;42294.63;5113000;28;20269;-60
2023/09/24 08:40:42;;;;;;;19.23;18.30;;;;;;;-141.02;72.18;42329.16;5112877;28;20292;-67
2023/09/24 08:43:13;;;;;;;20.35;19.38;;;;;;;-141.02;71.08;42321.47;5112962;28;20254;-59
2023/09/24 08:45:42;;;;;;;20.00;19.00;;;;;;;-141.02;70.30;42342.59;5112825;28;20193;-59
2023/09/24 08:48:11;;;;;;;19.60;18.60;;;;;;;-141.02;70.57;42321.47;5113390;28;20231;-59
2023/09/24 08:50:41;;;;;;;19.02;18.05;;;;;;;-141.02;70.71;42325.31;5112715;28;20270;-59
2023/09/24 08:53:10;;;;;;;19.17;18.17;;;;;;;-141.02;71.87;42327.25;5112589;28;20667;-60
2023/09/24 08:55:39;;;;;;;19.45;18.45;;;;;;;-141.02;70.62;42348.34;5112715;28;20201;-59
2023/09/24 08:58:06;;;;;;;19.13;18.13;;;;;;;-141.02;70.30;42334.91;5112905;28;20197;-60
2023/09/24 09:00:33;;;;;;;18.90;17.90;;;;;;;-141.02;69.63;42340.69;5112351;28;20192;-59
2023/09/24 09:03:03;;;;;;;19.65;18.58;;;;;;;-141.02;70.15;42346.44;5112407;28;20189;-59
2023/09/24 09:05:34;;;;;;;19.70;18.65;;;;;;;-141.02;69.86;42356.03;5112416;28;20569;-59
2023/09/24 09:08:04;;;;;;;19.50;18.50;;;;;;;-141.02;69.93;42375.22;5112588;28;20189;-59
2023/09/24 09:10:32;;;;;;;19.27;18.27;;;;;;;-141.02;69.33;42432.81;5112427;28;20332;-59
2023/09/24 09:13:07;;;;;;;19.10;18.10;;;;;;;-141.02;69.03;42471.19;5112586;28;20224;-61
2023/09/24 09:15:34;;;;;;;19.45;18.35;;;;;;;-141.02;69.17;42467.38;5112570;28;20689;-59
2023/09/24 09:18:02;;;;;;;19.95;18.85;;;;;;;-141.02;68.59;42452.00;5112547;28;20276;-59
2023/09/24 09:20:42;;;;;;;19.48;18.38;;;;;;;-141.02;67.08;42448.16;5112804;28;20200;-59
2023/09/24 09:23:13;;;;;;;19.35;18.25;;;;;;;-141.02;66.99;42428.97;5112127;28;20619;-61
2023/09/24 09:25:52;;;;;;;19.48;18.38;;;;;;;-141.02;67.07;42425.13;5112220;28;20655;-67
2023/09/24 09:28:25;;;;;;;21.25;20.05;;;;;;;-141.02;67.14;42444.34;5112312;28;20200;-59
2023/09/24 09:31:06;;;;;;;19.45;18.35;;;;;;;-141.02;66.80;42455.84;5112474;28;20280;-59
2023/09/24 09:33:34;;;;;;;19.70;18.60;;;;;;;-141.02;66.40;42478.88;5112499;28;20269;-59
2023/09/24 09:36:02;;;;;;;19.80;18.70;;;;;;;-141.02;66.79;42498.06;5112412;28;20272;-60
2023/09/24 09:38:31;;;;;;;20.00;18.90;;;;;;;-141.02;66.42;42471.19;5112296;28;20197;-59
2023/09/24 09:40:59;;;;;;;20.05;18.95;;;;;;;-141.02;66.98;42452.00;5112358;28;20305;-60
2023/09/24 09:43:27;;;;;;;19.58;18.48;;;;;;;-141.02;66.04;42521.13;5111979;28;20659;-60
2023/09/24 09:45:56;;;;;;;20.30;19.20;;;;;;;-141.02;65.34;42515.34;5112266;28;20203;-59
2023/09/24 09:48:31;;;;;;;20.08;18.98;;;;;;;-141.02;65.87;42548.00;5112174;28;20291;-60
2023/09/24 09:51:06;;;;;;;20.05;18.95;;;;;;;-141.02;65.02;42526.88;5112003;28;20232;-60
2023/09/24 09:53:36;;;;;;;19.77;18.67;;;;;;;-141.02;64.62;42659.31;5111937;28;20195;-59
2023/09/24 09:56:05;;;;;;;19.83;18.83;;;;;;;-141.02;63.84;42544.16;5111948;28;20182;-68
2023/09/24 09:58:36;;;;;;;19.20;18.20;;;;;;;-141.02;65.00;42528.78;5112176;28;20197;-59
2023/09/24 10:01:04;;;;;;;19.23;18.23;;;;;;;-141.02;64.43;42467.38;5112058;28;20200;-68
2023/09/24 10:03:34;;;;;;;19.77;18.67;;;;;;;-141.02;63.75;42505.75;5112117;28;20197;-60
2023/09/24 10:06:03;;;;;;;19.30;18.30;;;;;;;-141.02;63.43;42482.72;5112299;28;20276;-59
2023/09/24 10:08:42;;;;;;;19.77;18.67;;;;;;;-141.02;63.74;42517.28;5111646;28;20644;-60
2023/09/24 10:11:10;;;;;;;20.73;19.63;;;;;;;-141.02;63.04;42507.69;5111646;28;20229;-60
2023/09/24 10:13:50;;;;;;;19.08;18.08;;;;;;;-141.02;63.84;42486.56;5114833;28;20197;-59
2023/09/24 10:16:38;;;;;;;19.02;18.02;;;;;;;-141.02;63.39;42505.75;5115614;28;20671;-60
2023/09/24 10:19:07;;;;;;;19.15;18.15;;;;;;;-141.02;62.67;42524.94;5115360;28;20189;-60
2023/09/24 10:21:35;;;;;;;19.25;18.25;;;;;;;-141.02;62.73;42540.31;5115293;28;20228;-59
2023/09/24 10:24:47;;;;;;;19.08;18.08;;;;;;;-141.02;62.63;42561.41;5115220;27;20655;-60
2023/09/24 10:27:16;;;;;;;18.90;17.90;;;;;;;-141.02;63.29;42551.81;5115697;28;20204;-59
2023/09/24 10:30:07;;;;;;;19.60;18.50;;;;;;;-141.02;63.66;42542.22;5115385;28;20580;-59
2023/09/24 10:32:50;;;;;;;18.90;17.90;;;;;;;-141.02;62.19;42501.91;5100334;27;20278;-60
2023/09/24 10:35:18;;;;;;;18.67;17.67;;;;;;;-141.02;62.16;42509.59;5115003;28;20576;-60
2023/09/24 10:38:01;;;;;;;18.92;17.92;;;;;;;-141.02;63.43;42505.75;5115525;28;20201;-59
2023/09/24 10:40:29;;;;;;;18.90;17.85;;;;;;;-141.02;63.14;42501.91;5115192;28;20189;-59
2023/09/24 10:43:19;;;;;;;19.00;17.90;;;;;;;-141.02;62.98;42444.34;5114935;28;20220;-67
2023/09/24 10:45:46;;;;;;;19.23;18.15;;;;;;;-141.02;63.37;42455.84;5115125;28;20225;-59
2023/09/24 10:48:19;;;;;;;19.65;18.55;;;;;;;-141.02;63.39;42434.72;5115093;28;20229;-60
2023/09/24 10:50:46;;;;;;;19.50;18.40;;;;;;;-141.02;63.05;42436.66;5114889;28;20262;-67
2023/09/24 10:53:18;;;;;;;19.25;18.15;;;;;;;-141.02;63.52;42475.03;5114953;28;20197;-59
2023/09/24 10:55:45;;;;;;;19.38;18.27;;;;;;;-141.02;64.01;42501.91;5114574;28;20224;-59
2023/09/24 10:58:14;;;;;;;19.58;18.48;;;;;;;-141.02;63.69;42469.28;5114559;28;20285;-60
2023/09/24 11:00:44;;;;;;;19.65;18.55;;;;;;;-141.02;63.31;42494.25;5114757;28;20201;-60
2023/09/24 11:03:14;;;;;;;19.30;18.30;;;;;;;-141.02;62.92;42540.31;5115453;27;20764;-59
2023/09/24 11:05:47;;;;;;;19.70;18.60;;;;;;;-141.02;62.76;42515.34;5135548;27;20211;-59